createdAt,value
2019-01-20T00:00:54.058Z,-0.99
2019-01-20T00:02:00.413Z,-0.96
2019-01-20T00:03:06.242Z,-0.99
2019-01-20T00:04:12.095Z,-0.83
2019-01-20T00:05:17.278Z,-0.91
2019-01-20T00:06:22.670Z,-0.95
2019-01-20T00:07:28.659Z,-0.84
2019-01-20T00:08:33.958Z,-0.91
2019-01-20T00:09:38.988Z,-0.95
2019-01-20T00:10:43.936Z,-0.93
2019-01-20T00:11:49.066Z,-0.83
2019-01-20T00:12:54.495Z,-0.90
2019-01-20T00:14:00.516Z,-0.91
2019-01-20T00:15:06.490Z,-0.85
2019-01-20T00:16:13.147Z,-0.78
2019-01-20T00:17:18.868Z,-0.82
2019-01-20T00:18:23.758Z,-0.78
2019-01-20T00:19:29.145Z,-0.86
2019-01-20T00:20:34.332Z,-0.92
2019-01-20T00:21:39.783Z,-0.99
2019-01-20T00:22:45.246Z,-0.85
2019-01-20T00:23:51.758Z,-0.82
2019-01-20T00:24:57.118Z,-0.72
2019-01-20T00:26:02.522Z,-0.84
2019-01-20T00:27:07.520Z,-0.93
2019-01-20T00:28:12.601Z,-0.99
2019-01-20T00:29:18.521Z,-0.95
2019-01-20T00:30:23.533Z,-0.98
2019-01-20T00:31:28.513Z,-1.01
2019-01-20T00:32:34.064Z,-1.15
2019-01-20T00:33:39.804Z,-0.99
2019-01-20T00:34:47.167Z,-1.04
2019-01-20T00:35:52.569Z,-1.13
2019-01-20T00:36:57.523Z,-1.07
2019-01-20T00:38:02.597Z,-0.96
2019-01-20T00:39:09.987Z,-1.06
2019-01-20T00:40:15.975Z,-1.06
2019-01-20T00:41:24.267Z,-1.02
2019-01-20T00:42:28.832Z,-1.10
2019-01-20T00:43:34.493Z,-1.00
2019-01-20T00:44:39.537Z,-1.11
2019-01-20T00:45:45.106Z,-1.03
2019-01-20T00:46:50.703Z,-0.90
2019-01-20T00:47:56.405Z,-1.02
2019-01-20T00:49:01.853Z,-1.08
2019-01-20T00:50:07.216Z,-0.94
2019-01-20T00:51:11.975Z,-1.05
2019-01-20T00:52:17.516Z,-1.05
2019-01-20T00:53:22.951Z,-1.06
2019-01-20T00:54:28.619Z,-1.08
2019-01-20T00:55:33.991Z,-1.01
2019-01-20T00:56:38.811Z,-1.15
2019-01-20T00:57:44.724Z,-1.00
2019-01-20T00:58:49.893Z,-0.93
2019-01-20T00:59:55.246Z,-1.14
2019-01-20T01:00:59.981Z,-1.02
2019-01-20T01:02:05.435Z,-1.04
2019-01-20T01:03:11.227Z,-1.13
2019-01-20T01:04:16.202Z,-1.11
2019-01-20T01:05:21.149Z,-1.21
2019-01-20T01:06:26.170Z,-1.23
2019-01-20T01:07:31.941Z,-1.09
2019-01-20T01:08:36.587Z,-1.21
2019-01-20T01:09:41.690Z,-1.07
2019-01-20T01:10:47.095Z,-1.08
2019-01-20T01:11:52.272Z,-1.18
2019-01-20T01:12:58.092Z,-1.27
2019-01-20T01:14:03.991Z,-1.33
2019-01-20T01:15:09.823Z,-1.25
2019-01-20T01:16:15.069Z,-1.19
2019-01-20T01:17:20.372Z,-1.13
2019-01-20T01:18:26.222Z,-1.29
2019-01-20T01:19:32.299Z,-1.28
2019-01-20T01:20:37.533Z,-1.31
2019-01-20T01:21:42.973Z,-1.38
2019-01-20T01:22:48.583Z,-1.26
2019-01-20T01:23:53.923Z,-1.36
2019-01-20T01:24:59.330Z,-1.36
2019-01-20T01:26:04.717Z,-1.32
2019-01-20T01:27:10.438Z,-1.31
2019-01-20T01:28:15.379Z,-1.25
2019-01-20T01:29:20.697Z,-1.28
2019-01-20T01:30:26.427Z,-1.18
2019-01-20T01:31:31.788Z,-1.11
2019-01-20T01:32:36.539Z,-1.06
2019-01-20T01:33:41.137Z,-1.14
2019-01-20T01:34:46.503Z,-1.20
2019-01-20T01:35:51.505Z,-1.18
2019-01-20T01:36:56.732Z,-1.27
2019-01-20T01:38:01.753Z,-1.27
2019-01-20T01:39:09.340Z,-1.35
2019-01-20T01:40:14.783Z,-1.26
2019-01-20T01:41:19.386Z,-1.21
2019-01-20T01:42:24.673Z,-1.36
2019-01-20T01:43:32.202Z,-1.36
2019-01-20T01:44:37.563Z,-1.45
2019-01-20T01:45:43.087Z,-1.31
2019-01-20T01:46:48.482Z,-1.41
2019-01-20T01:47:53.766Z,-1.40
2019-01-20T01:48:58.367Z,-1.31
2019-01-20T01:50:03.641Z,-1.36
2019-01-20T01:51:08.643Z,-1.41
2019-01-20T01:52:13.698Z,-1.47
2019-01-20T01:53:18.682Z,-1.36
2019-01-20T01:54:23.736Z,-1.33
2019-01-20T01:55:31.809Z,-1.32
2019-01-20T01:56:36.860Z,-1.38
2019-01-20T01:57:42.282Z,-1.48
2019-01-20T01:58:47.889Z,-1.41
2019-01-20T01:59:54.341Z,-1.49
2019-01-20T02:01:01.803Z,-1.36
2019-01-20T02:02:07.068Z,-1.34
2019-01-20T02:03:12.153Z,-1.53
2019-01-20T02:04:17.499Z,-1.58
2019-01-20T02:05:23.686Z,-1.48
2019-01-20T02:06:29.505Z,-1.54
2019-01-20T02:07:34.151Z,-1.47
2019-01-20T02:08:39.634Z,-1.48
2019-01-20T02:09:44.725Z,-1.44
2019-01-20T02:10:50.473Z,-1.64
2019-01-20T02:11:57.622Z,-1.51
2019-01-20T02:13:02.623Z,-1.48
2019-01-20T02:14:07.793Z,-1.53
2019-01-20T02:15:15.830Z,-1.67
2019-01-20T02:16:21.164Z,-1.64
2019-01-20T02:17:26.087Z,-1.57
2019-01-20T02:18:30.974Z,-1.67
2019-01-20T02:19:35.887Z,-1.67
2019-01-20T02:20:41.734Z,-1.68
2019-01-20T02:21:47.526Z,-1.66
2019-01-20T02:22:52.590Z,-1.70
2019-01-20T02:23:57.785Z,-1.53
2019-01-20T02:25:03.301Z,-1.48
2019-01-20T02:26:08.314Z,-1.58
2019-01-20T02:27:14.032Z,-1.45
2019-01-20T02:28:20.541Z,-1.48
2019-01-20T02:29:26.034Z,-1.50
2019-01-20T02:30:32.209Z,-1.63
2019-01-20T02:31:37.993Z,-1.52
2019-01-20T02:32:43.641Z,-1.50
2019-01-20T02:33:48.359Z,-1.48
2019-01-20T02:34:53.745Z,-1.56
2019-01-20T02:35:59.327Z,-1.80
2019-01-20T02:37:04.205Z,-1.93
2019-01-20T02:38:09.173Z,-1.85
2019-01-20T02:39:14.514Z,-1.84
2019-01-20T02:40:19.423Z,-1.77
2019-01-20T02:41:24.357Z,-1.73
2019-01-20T02:42:29.313Z,-1.86
2019-01-20T02:43:34.338Z,-1.91
2019-01-20T02:44:40.167Z,-1.87
2019-01-20T02:45:44.832Z,-1.99
2019-01-20T02:46:50.728Z,-2.00
2019-01-20T02:47:56.447Z,-1.92
2019-01-20T02:49:03.680Z,-1.81
2019-01-20T02:50:10.453Z,-2.01
2019-01-20T02:51:15.934Z,-2.01
2019-01-20T02:52:21.452Z,-1.97
2019-01-20T02:53:27.006Z,-2.07
2019-01-20T02:54:32.052Z,-1.97
2019-01-20T02:55:36.696Z,-1.94
2019-01-20T02:56:42.511Z,-1.94
2019-01-20T02:57:47.597Z,-1.92
2019-01-20T02:58:52.831Z,-1.84
2019-01-20T02:59:58.103Z,-1.84
2019-01-20T03:01:03.150Z,-1.79
2019-01-20T03:02:08.539Z,-1.90
2019-01-20T03:03:13.585Z,-1.94
2019-01-20T03:04:19.859Z,-1.88
2019-01-20T03:05:25.481Z,-1.74
2019-01-20T03:06:30.191Z,-1.91
2019-01-20T03:07:38.074Z,-1.95
2019-01-20T03:08:43.009Z,-2.04
2019-01-20T03:09:48.472Z,-1.94
2019-01-20T03:10:53.338Z,-1.90
2019-01-20T03:12:03.422Z,-2.01
2019-01-20T03:13:06.557Z,-2.09
2019-01-20T03:14:11.913Z,-2.12
2019-01-20T03:15:16.913Z,-2.22
2019-01-20T03:16:22.304Z,-2.13
2019-01-20T03:17:27.582Z,-2.25
2019-01-20T03:18:34.515Z,-2.10
2019-01-20T03:19:39.455Z,-2.27
2019-01-20T03:20:45.282Z,-2.26
2019-01-20T03:21:50.114Z,-2.42
2019-01-20T03:22:55.639Z,-2.20
2019-01-20T03:24:00.923Z,-2.19
2019-01-20T03:25:06.567Z,-2.19
2019-01-20T03:26:11.596Z,-2.20
2019-01-20T03:27:17.045Z,-2.25
2019-01-20T03:28:21.945Z,-2.20
2019-01-20T03:29:27.631Z,-2.06
2019-01-20T03:30:33.401Z,-2.08
2019-01-20T03:31:38.249Z,-2.10
2019-01-20T03:32:43.898Z,-2.18
2019-01-20T03:33:48.899Z,-2.17
2019-01-20T03:34:53.810Z,-2.21
2019-01-20T03:35:58.975Z,-2.37
2019-01-20T03:37:04.346Z,-2.36
2019-01-20T03:38:09.704Z,-2.30
2019-01-20T03:39:14.629Z,-2.20
2019-01-20T03:40:19.619Z,-2.23
2019-01-20T03:41:24.587Z,-2.16
2019-01-20T03:42:29.528Z,-2.10
2019-01-20T03:43:34.647Z,-2.22
2019-01-20T03:44:39.720Z,-2.44
2019-01-20T03:45:45.425Z,-2.50
2019-01-20T03:46:50.381Z,-2.44
2019-01-20T03:47:55.628Z,-2.46
2019-01-20T03:49:01.098Z,-2.35
2019-01-20T03:50:06.911Z,-2.37
2019-01-20T03:51:12.620Z,-2.46
2019-01-20T03:52:18.697Z,-2.39
2019-01-20T03:53:23.618Z,-2.46
2019-01-20T03:54:28.822Z,-2.39
2019-01-20T03:55:33.853Z,-2.53
2019-01-20T03:56:38.483Z,-2.43
2019-01-20T03:57:43.842Z,-2.30
2019-01-20T03:58:49.167Z,-2.35
2019-01-20T03:59:53.772Z,-2.31
2019-01-20T04:00:59.266Z,-2.28
2019-01-20T04:02:05.582Z,-2.26
2019-01-20T04:03:11.600Z,-2.22
2019-01-20T04:04:16.903Z,-2.49
2019-01-20T04:05:21.932Z,-2.37
2019-01-20T04:06:27.684Z,-2.33
2019-01-20T04:07:32.644Z,-2.31
2019-01-20T04:08:37.536Z,-2.36
2019-01-20T04:09:43.166Z,-2.39
2019-01-20T04:10:48.725Z,-2.50
2019-01-20T04:11:54.210Z,-2.44
2019-01-20T04:12:59.292Z,-2.25
2019-01-20T04:14:04.312Z,-2.25
2019-01-20T04:15:09.463Z,-2.44
2019-01-20T04:16:14.105Z,-2.28
2019-01-20T04:17:19.515Z,-2.21
2019-01-20T04:18:24.377Z,-2.29
2019-01-20T04:19:30.076Z,-2.31
2019-01-20T04:20:35.513Z,-2.20
2019-01-20T04:21:41.293Z,-2.24
2019-01-20T04:22:45.811Z,-2.25
2019-01-20T04:23:51.161Z,-2.29
2019-01-20T04:24:56.655Z,-2.21
2019-01-20T04:26:02.645Z,-2.23
2019-01-20T04:27:07.705Z,-2.29
2019-01-20T04:28:13.410Z,-2.35
2019-01-20T04:29:19.579Z,-2.34
2019-01-20T04:30:24.311Z,-2.23
2019-01-20T04:31:29.888Z,-2.22
2019-01-20T04:32:35.579Z,-2.33
2019-01-20T04:33:41.276Z,-2.26
2019-01-20T04:34:46.807Z,-2.28
2019-01-20T04:35:52.108Z,-2.39
2019-01-20T04:36:57.633Z,-2.24
2019-01-20T04:38:02.934Z,-2.16
2019-01-20T04:39:08.987Z,-2.33
2019-01-20T04:40:16.533Z,-2.35
2019-01-20T04:41:21.892Z,-2.20
2019-01-20T04:42:29.273Z,-2.33
2019-01-20T04:43:33.521Z,-2.30
2019-01-20T04:44:38.437Z,-2.19
2019-01-20T04:45:43.871Z,-2.40
2019-01-20T04:46:49.182Z,-2.34
2019-01-20T04:47:54.516Z,-2.48
2019-01-20T04:48:59.564Z,-2.45
2019-01-20T04:50:04.667Z,-2.28
2019-01-20T04:51:09.615Z,-2.36
2019-01-20T04:52:14.781Z,-2.28
2019-01-20T04:53:20.337Z,-2.34
2019-01-20T04:54:25.805Z,-2.53
2019-01-20T04:55:31.056Z,-2.39
2019-01-20T04:56:35.923Z,-2.54
2019-01-20T04:57:41.054Z,-2.57
2019-01-20T04:58:46.862Z,-2.50
2019-01-20T04:59:51.710Z,-2.44
2019-01-20T05:00:57.459Z,-2.53
2019-01-20T05:02:03.493Z,-2.77
2019-01-20T05:03:08.934Z,-2.63
2019-01-20T05:04:14.309Z,-2.77
2019-01-20T05:05:19.630Z,-2.68
2019-01-20T05:06:24.860Z,-2.62
2019-01-20T05:07:30.682Z,-2.73
2019-01-20T05:08:36.047Z,-2.63
2019-01-20T05:09:41.003Z,-2.70
2019-01-20T05:10:46.319Z,-2.55
2019-01-20T05:11:52.594Z,-2.67
2019-01-20T05:12:57.610Z,-2.78
2019-01-20T05:14:05.975Z,-2.70
2019-01-20T05:15:16.050Z,-2.79
2019-01-20T05:16:21.468Z,-2.84
2019-01-20T05:17:26.876Z,-2.87
2019-01-20T05:18:32.343Z,-2.85
2019-01-20T05:19:37.627Z,-2.90
2019-01-20T05:20:43.347Z,-2.86
2019-01-20T05:21:48.401Z,-2.85
2019-01-20T05:22:53.733Z,-2.89
2019-01-20T05:23:58.648Z,-2.86
2019-01-20T05:25:06.549Z,-2.91
2019-01-20T05:26:11.807Z,-2.77
2019-01-20T05:27:16.782Z,-2.69
2019-01-20T05:28:22.139Z,-2.82
2019-01-20T05:29:28.034Z,-2.77
2019-01-20T05:30:33.319Z,-2.80
2019-01-20T05:31:38.227Z,-2.91
2019-01-20T05:32:42.870Z,-2.87
2019-01-20T05:33:48.512Z,-2.92
2019-01-20T05:34:53.425Z,-2.87
2019-01-20T05:35:58.470Z,-2.85
2019-01-20T05:37:03.860Z,-2.92
2019-01-20T05:38:09.673Z,-2.86
2019-01-20T05:39:15.211Z,-2.93
2019-01-20T05:40:20.901Z,-2.90
2019-01-20T05:41:25.970Z,-2.98
2019-01-20T05:42:32.187Z,-3.10
2019-01-20T05:43:37.573Z,-2.95
2019-01-20T05:44:42.710Z,-2.95
2019-01-20T05:45:48.648Z,-3.01
2019-01-20T05:46:54.635Z,-2.98
2019-01-20T05:48:00.209Z,-2.88
2019-01-20T05:49:05.753Z,-3.18
2019-01-20T05:50:12.250Z,-3.12
2019-01-20T05:51:17.495Z,-2.95
2019-01-20T05:52:22.536Z,-2.93
2019-01-20T05:53:27.770Z,-2.91
2019-01-20T05:54:33.757Z,-2.96
2019-01-20T05:55:39.102Z,-3.08
2019-01-20T05:56:44.749Z,-3.19
2019-01-20T05:57:49.436Z,-3.04
2019-01-20T05:58:55.586Z,-3.07
2019-01-20T06:00:00.950Z,-3.01
2019-01-20T06:01:06.395Z,-2.97
2019-01-20T06:02:11.956Z,-3.02
2019-01-20T06:03:16.756Z,-3.22
2019-01-20T06:04:22.607Z,-2.95
2019-01-20T06:05:28.196Z,-2.90
2019-01-20T06:06:33.971Z,-3.02
2019-01-20T06:07:40.211Z,-3.00
2019-01-20T06:08:44.832Z,-2.99
2019-01-20T06:09:53.230Z,-2.95
2019-01-20T06:10:58.748Z,-2.89
2019-01-20T06:12:04.151Z,-2.92
2019-01-20T06:13:09.389Z,-2.99
2019-01-20T06:14:14.536Z,-2.94
2019-01-20T06:15:20.697Z,-2.95
2019-01-20T06:16:26.956Z,-2.80
2019-01-20T06:17:31.830Z,-2.80
2019-01-20T06:18:38.275Z,-2.97
2019-01-20T06:19:43.997Z,-2.80
2019-01-20T06:20:49.610Z,-2.72
2019-01-20T06:21:57.861Z,-2.85
2019-01-20T06:23:04.133Z,-3.01
2019-01-20T06:24:09.641Z,-2.85
2019-01-20T06:25:14.899Z,-2.86
2019-01-20T06:26:20.700Z,-2.97
2019-01-20T06:27:27.279Z,-3.04
2019-01-20T06:28:32.434Z,-3.13
2019-01-20T06:29:37.700Z,-3.14
2019-01-20T06:30:42.715Z,-3.19
2019-01-20T06:31:48.014Z,-3.14
2019-01-20T06:32:52.891Z,-3.11
2019-01-20T06:33:58.132Z,-3.25
2019-01-20T06:35:06.938Z,-3.25
2019-01-20T06:36:12.184Z,-3.15
2019-01-20T06:37:17.488Z,-3.28
2019-01-20T06:38:23.516Z,-3.15
2019-01-20T06:39:29.651Z,-3.23
2019-01-20T06:40:34.898Z,-3.24
2019-01-20T06:41:40.257Z,-3.08
2019-01-20T06:42:46.181Z,-3.20
2019-01-20T06:43:51.657Z,-3.30
2019-01-20T06:44:56.643Z,-3.10
2019-01-20T06:46:02.013Z,-3.14
2019-01-20T06:47:07.424Z,-3.17
2019-01-20T06:48:13.401Z,-3.01
2019-01-20T06:49:18.276Z,-3.11
2019-01-20T06:50:23.295Z,-3.11
2019-01-20T06:51:28.305Z,-3.16
2019-01-20T06:52:33.535Z,-3.13
2019-01-20T06:53:40.219Z,-3.06
2019-01-20T06:54:45.542Z,-3.31
2019-01-20T06:55:50.641Z,-3.49
2019-01-20T06:56:55.968Z,-3.34
2019-01-20T06:58:01.632Z,-3.33
2019-01-20T06:59:07.477Z,-3.34
2019-01-20T07:00:18.354Z,-3.43
2019-01-20T07:01:24.008Z,-3.41
2019-01-20T07:02:28.947Z,-3.31
2019-01-20T07:03:34.243Z,-3.33
2019-01-20T07:04:39.505Z,-3.41
2019-01-20T07:05:44.138Z,-3.30
2019-01-20T07:06:49.341Z,-3.31
2019-01-20T07:07:54.185Z,-3.23
2019-01-20T07:08:59.643Z,-3.32
2019-01-20T07:10:04.905Z,-3.45
2019-01-20T07:11:10.143Z,-3.48
2019-01-20T07:12:14.738Z,-3.42
2019-01-20T07:13:20.007Z,-3.39
2019-01-20T07:14:25.269Z,-3.28
2019-01-20T07:15:31.241Z,-3.50
2019-01-20T07:16:36.129Z,-3.40
2019-01-20T07:17:41.332Z,-3.53
2019-01-20T07:18:46.673Z,-3.48
2019-01-20T07:19:51.686Z,-3.59
2019-01-20T07:20:57.243Z,-3.45
2019-01-20T07:22:03.155Z,-3.39
2019-01-20T07:23:08.336Z,-3.44
2019-01-20T07:24:13.260Z,-3.38
2019-01-20T07:25:18.771Z,-3.47
2019-01-20T07:26:23.758Z,-3.47
2019-01-20T07:27:28.761Z,-3.50
2019-01-20T07:28:34.394Z,-3.57
2019-01-20T07:29:39.629Z,-3.46
2019-01-20T07:30:44.797Z,-3.58
2019-01-20T07:31:50.028Z,-3.54
2019-01-20T07:32:54.571Z,-3.52
2019-01-20T07:34:00.433Z,-3.52
2019-01-20T07:35:06.019Z,-3.55
2019-01-20T07:36:11.239Z,-3.64
2019-01-20T07:37:16.854Z,-3.53
2019-01-20T07:38:21.682Z,-3.45
2019-01-20T07:39:26.931Z,-3.43
2019-01-20T07:40:31.587Z,-3.40
2019-01-20T07:41:37.456Z,-3.37
2019-01-20T07:42:42.703Z,-3.35
2019-01-20T07:43:48.181Z,-3.45
2019-01-20T07:44:53.462Z,-3.24
2019-01-20T07:45:58.696Z,-3.28
2019-01-20T07:47:03.681Z,-3.31
2019-01-20T07:48:08.535Z,-3.25
2019-01-20T07:49:14.136Z,-3.38
2019-01-20T07:50:26.947Z,-3.51
2019-01-20T07:51:31.883Z,-3.38
2019-01-20T07:52:36.980Z,-3.25
2019-01-20T07:53:41.813Z,-3.19
2019-01-20T07:54:49.108Z,-3.32
2019-01-20T07:55:53.906Z,-3.27
2019-01-20T07:56:58.956Z,-3.33
2019-01-20T07:58:04.295Z,-3.43
2019-01-20T07:59:09.126Z,-3.24
2019-01-20T08:00:16.073Z,-3.23
2019-01-20T08:01:21.955Z,-3.26
2019-01-20T08:02:26.816Z,-3.08
2019-01-20T08:03:32.099Z,-3.18
2019-01-20T08:04:37.671Z,-2.98
2019-01-20T08:05:42.686Z,-3.09
2019-01-20T08:06:48.137Z,-3.15
2019-01-20T08:07:53.610Z,-3.16
2019-01-20T08:08:58.740Z,-3.30
2019-01-20T08:10:03.769Z,-3.24
2019-01-20T08:11:09.119Z,-3.12
2019-01-20T08:12:13.940Z,-3.13
2019-01-20T08:13:24.211Z,-3.01
2019-01-20T08:14:26.605Z,-2.97
2019-01-20T08:15:31.860Z,-2.95
2019-01-20T08:16:36.769Z,-2.79
2019-01-20T08:17:42.156Z,-2.72
2019-01-20T08:18:46.934Z,-2.56
2019-01-20T08:19:54.313Z,-2.45
2019-01-20T08:20:59.568Z,-2.30
2019-01-20T08:22:04.594Z,-2.12
2019-01-20T08:23:09.869Z,-2.14
2019-01-20T08:24:15.096Z,-2.17
2019-01-20T08:25:20.566Z,-2.06
2019-01-20T08:26:25.859Z,-1.88
2019-01-20T08:27:30.761Z,-1.75
2019-01-20T08:28:35.953Z,-1.57
2019-01-20T08:29:40.475Z,-1.75
2019-01-20T08:30:45.324Z,-1.70
2019-01-20T08:31:50.894Z,-1.54
2019-01-20T08:32:56.825Z,-1.34
2019-01-20T08:34:01.695Z,-1.16
2019-01-20T08:35:06.713Z,-1.30
2019-01-20T08:36:12.158Z,-1.18
2019-01-20T08:37:17.876Z,-1.01
2019-01-20T08:38:22.677Z,-0.83
2019-01-20T08:39:27.968Z,-0.78
2019-01-20T08:40:33.380Z,-0.75
2019-01-20T08:41:38.863Z,-0.73
2019-01-20T08:42:44.018Z,-0.62
2019-01-20T08:43:49.876Z,-0.47
2019-01-20T08:44:55.115Z,-0.36
2019-01-20T08:46:12.230Z,-0.27
2019-01-20T08:47:33.965Z,-0.18
2019-01-20T08:48:38.854Z,-0.32
2019-01-20T08:49:44.187Z,0.02
2019-01-20T08:50:49.178Z,0.02
2019-01-20T08:51:54.771Z,0.11
2019-01-20T08:53:00.672Z,0.29
2019-01-20T08:54:06.827Z,0.26
2019-01-20T08:55:12.169Z,0.11
2019-01-20T08:56:17.204Z,0.40
2019-01-20T08:57:23.087Z,0.47
2019-01-20T08:58:28.294Z,0.71
2019-01-20T08:59:33.802Z,0.63
2019-01-20T09:00:40.603Z,0.67
2019-01-20T09:01:48.277Z,1.07
2019-01-20T09:02:52.977Z,0.94
2019-01-20T09:03:58.018Z,1.12
2019-01-20T09:05:04.234Z,1.29
2019-01-20T09:06:09.284Z,1.13
2019-01-20T09:07:14.762Z,1.10
2019-01-20T09:08:19.672Z,1.31
2019-01-20T09:09:25.266Z,1.52
2019-01-20T09:10:30.660Z,1.69
2019-01-20T09:11:35.563Z,1.71
2019-01-20T09:12:41.795Z,1.64
2019-01-20T09:13:46.675Z,1.62
2019-01-20T09:14:51.599Z,1.61
2019-01-20T09:15:56.483Z,1.65
2019-01-20T09:17:03.560Z,1.61
2019-01-20T09:18:08.494Z,1.44
2019-01-20T09:19:13.384Z,1.71
2019-01-20T09:20:18.365Z,1.80
2019-01-20T09:21:23.796Z,1.72
2019-01-20T09:22:29.428Z,2.15
2019-01-20T09:23:34.707Z,2.32
2019-01-20T09:24:39.215Z,2.21
2019-01-20T09:25:44.455Z,2.21
2019-01-20T09:26:49.061Z,2.43
2019-01-20T09:27:54.342Z,2.58
2019-01-20T09:28:59.881Z,2.84
2019-01-20T09:30:06.502Z,2.49
2019-01-20T09:31:11.821Z,2.67
2019-01-20T09:32:17.676Z,2.41
2019-01-20T09:33:24.739Z,2.54
2019-01-20T09:34:30.087Z,2.77
2019-01-20T09:35:35.049Z,2.77
2019-01-20T09:36:41.064Z,2.67
2019-01-20T09:37:46.083Z,2.95
2019-01-20T09:38:51.035Z,2.87
2019-01-20T09:39:55.886Z,3.05
2019-01-20T09:41:01.644Z,3.19
2019-01-20T09:42:07.310Z,2.96
2019-01-20T09:43:35.901Z,3.17
2019-01-20T09:44:41.042Z,3.40
2019-01-20T09:45:45.906Z,3.56
2019-01-20T09:46:51.393Z,3.43
2019-01-20T09:47:56.388Z,3.58
2019-01-20T09:49:01.570Z,3.68
2019-01-20T09:50:07.403Z,3.56
2019-01-20T09:51:12.743Z,3.58
2019-01-20T09:52:20.407Z,3.40
2019-01-20T09:53:25.702Z,3.49
2019-01-20T09:54:31.063Z,3.75
2019-01-20T09:55:36.059Z,3.52
2019-01-20T09:56:41.610Z,3.75
2019-01-20T09:57:47.330Z,4.05
2019-01-20T09:58:52.366Z,4.13
2019-01-20T09:59:57.522Z,4.14
2019-01-20T10:01:02.384Z,3.80
2019-01-20T10:02:07.808Z,3.61
2019-01-20T10:03:16.263Z,3.79
2019-01-20T10:04:20.947Z,3.21
2019-01-20T10:05:26.411Z,3.38
2019-01-20T10:06:32.182Z,3.60
2019-01-20T10:07:37.050Z,3.75
2019-01-20T10:08:49.746Z,3.97
2019-01-20T10:10:17.332Z,4.10
2019-01-20T10:11:22.128Z,4.24
2019-01-20T10:12:27.412Z,4.26
2019-01-20T10:13:31.975Z,3.95
2019-01-20T10:14:37.313Z,4.13
2019-01-20T10:15:42.175Z,4.30
2019-01-20T10:16:47.662Z,4.29
2019-01-20T10:17:52.266Z,4.29
2019-01-20T10:18:57.591Z,4.46
2019-01-20T10:20:02.494Z,4.16
2019-01-20T10:21:07.392Z,3.70
2019-01-20T10:22:12.728Z,3.76
2019-01-20T10:23:17.712Z,4.22
2019-01-20T10:24:22.997Z,4.21
2019-01-20T10:25:28.709Z,4.22
2019-01-20T10:26:33.691Z,4.59
2019-01-20T10:27:38.994Z,4.40
2019-01-20T10:28:43.901Z,4.36
2019-01-20T10:29:48.821Z,4.35
2019-01-20T10:30:54.128Z,4.70
2019-01-20T10:32:00.040Z,4.62
2019-01-20T10:33:06.619Z,4.61
2019-01-20T10:34:12.533Z,4.41
2019-01-20T10:35:18.559Z,4.62
2019-01-20T10:36:23.541Z,4.63
2019-01-20T10:37:28.645Z,4.43
2019-01-20T10:38:37.279Z,4.74
2019-01-20T10:39:39.960Z,4.75
2019-01-20T10:40:45.720Z,5.01
2019-01-20T10:41:50.555Z,5.11
2019-01-20T10:42:55.711Z,4.81
2019-01-20T10:44:02.424Z,4.95
2019-01-20T10:45:08.284Z,4.98
2019-01-20T10:46:13.615Z,5.16
2019-01-20T10:47:18.494Z,5.04
2019-01-20T10:48:24.588Z,5.04
2019-01-20T10:49:31.290Z,5.13
2019-01-20T10:50:36.175Z,4.92
2019-01-20T10:51:43.397Z,5.16
2019-01-20T10:52:48.829Z,5.34
2019-01-20T10:53:54.299Z,5.41
2019-01-20T10:54:59.640Z,5.34
2019-01-20T10:56:04.579Z,5.27
2019-01-20T10:57:09.767Z,4.65
2019-01-20T10:58:14.528Z,4.56
2019-01-20T10:59:20.324Z,4.95
2019-01-20T11:00:28.166Z,4.62
2019-01-20T11:01:33.515Z,4.78
2019-01-20T11:02:38.400Z,5.06
2019-01-20T11:03:43.782Z,5.05
2019-01-20T11:04:48.691Z,4.94
2019-01-20T11:05:53.652Z,5.17
2019-01-20T11:06:58.962Z,5.41
2019-01-20T11:08:04.027Z,4.89
2019-01-20T11:09:08.940Z,4.66
2019-01-20T11:10:13.900Z,4.94
2019-01-20T11:11:19.250Z,5.03
2019-01-20T11:12:24.424Z,4.79
2019-01-20T11:13:29.280Z,4.44
2019-01-20T11:14:34.573Z,5.00
2019-01-20T11:15:39.293Z,4.97
2019-01-20T11:16:43.984Z,4.32
2019-01-20T11:17:48.667Z,4.83
2019-01-20T11:18:55.846Z,5.11
2019-01-20T11:20:01.479Z,4.97
2019-01-20T11:21:06.960Z,5.19
2019-01-20T11:22:11.910Z,5.26
2019-01-20T11:23:17.089Z,5.32
2019-01-20T11:24:22.624Z,5.33
2019-01-20T11:25:30.635Z,5.43
2019-01-20T11:26:36.562Z,5.41
2019-01-20T11:27:41.282Z,5.72
2019-01-20T11:28:46.761Z,5.66
2019-01-20T11:29:52.067Z,5.69
2019-01-20T11:30:57.868Z,5.60
2019-01-20T11:32:03.293Z,5.67
2019-01-20T11:33:08.304Z,5.65
2019-01-20T11:34:13.709Z,5.74
2019-01-20T11:35:19.409Z,5.63
2019-01-20T11:36:23.976Z,5.40
2019-01-20T11:37:28.989Z,5.57
2019-01-20T11:38:33.984Z,5.76
2019-01-20T11:39:38.936Z,5.76
2019-01-20T11:40:44.170Z,5.79
2019-01-20T11:41:49.684Z,5.85
2019-01-20T11:42:55.506Z,5.74
2019-01-20T11:44:00.286Z,5.66
2019-01-20T11:45:06.113Z,5.84
2019-01-20T11:46:10.703Z,5.96
2019-01-20T11:47:16.497Z,6.06
2019-01-20T11:48:21.513Z,5.71
2019-01-20T11:49:26.835Z,5.81
2019-01-20T11:50:32.362Z,5.90
2019-01-20T11:51:37.454Z,6.19
2019-01-20T11:52:43.244Z,6.21
2019-01-20T11:53:49.471Z,6.13
2019-01-20T11:54:54.171Z,6.20
2019-01-20T11:55:59.548Z,6.25
2019-01-20T11:57:04.236Z,6.35
2019-01-20T11:58:09.869Z,5.73
2019-01-20T11:59:14.534Z,5.26
2019-01-20T12:00:28.349Z,5.29
2019-01-20T12:01:33.491Z,5.38
2019-01-20T12:02:38.800Z,5.52
2019-01-20T12:03:44.262Z,5.28
2019-01-20T12:04:49.565Z,5.40
2019-01-20T12:05:54.538Z,5.68
2019-01-20T12:06:59.420Z,5.94
2019-01-20T12:08:04.417Z,6.08
2019-01-20T12:09:09.530Z,5.89
2019-01-20T12:10:14.258Z,5.81
2019-01-20T12:11:19.801Z,5.81
2019-01-20T12:12:25.357Z,5.96
2019-01-20T12:13:31.072Z,6.01
2019-01-20T12:14:36.623Z,6.06
2019-01-20T12:15:41.443Z,6.08
2019-01-20T12:16:46.478Z,6.23
2019-01-20T12:17:51.482Z,5.70
2019-01-20T12:18:56.910Z,5.94
2019-01-20T12:20:02.422Z,5.26
2019-01-20T12:21:07.435Z,5.80
2019-01-20T12:22:12.780Z,6.07
2019-01-20T12:23:18.241Z,6.13
2019-01-20T12:24:23.220Z,6.23
2019-01-20T12:25:28.831Z,5.98
2019-01-20T12:26:33.732Z,5.84
2019-01-20T12:27:38.699Z,5.94
2019-01-20T12:28:44.015Z,6.07
2019-01-20T12:29:51.907Z,6.14
2019-01-20T12:30:55.694Z,6.18
2019-01-20T12:32:01.169Z,6.11
2019-01-20T12:33:06.662Z,6.03
2019-01-20T12:34:11.604Z,6.16
2019-01-20T12:35:16.922Z,6.07
2019-01-20T12:36:21.834Z,6.26
2019-01-20T12:37:27.140Z,6.22
2019-01-20T12:38:32.081Z,6.36
2019-01-20T12:39:37.415Z,5.91
2019-01-20T12:40:47.131Z,6.00
2019-01-20T12:41:52.081Z,5.96
2019-01-20T12:42:57.379Z,5.70
2019-01-20T12:44:03.024Z,5.86
2019-01-20T12:45:08.578Z,6.02
2019-01-20T12:46:13.457Z,6.35
2019-01-20T12:47:18.502Z,6.27
2019-01-20T12:48:23.825Z,5.93
2019-01-20T12:49:29.217Z,6.05
2019-01-20T12:50:34.290Z,5.95
2019-01-20T12:51:38.860Z,6.19
2019-01-20T12:52:43.847Z,6.20
2019-01-20T12:53:49.169Z,6.30
2019-01-20T12:54:54.530Z,6.18
2019-01-20T12:55:59.923Z,6.25
2019-01-20T12:57:04.855Z,5.75
2019-01-20T12:58:09.871Z,6.19
2019-01-20T12:59:14.821Z,6.36
2019-01-20T13:00:20.753Z,6.06
2019-01-20T13:01:26.580Z,5.50
2019-01-20T13:02:31.929Z,5.78
2019-01-20T13:03:37.142Z,5.93
2019-01-20T13:04:43.160Z,5.73
2019-01-20T13:05:48.294Z,5.97
2019-01-20T13:06:53.726Z,5.86
2019-01-20T13:07:59.108Z,6.03
2019-01-20T13:09:06.046Z,5.58
2019-01-20T13:10:12.246Z,5.96
2019-01-20T13:11:17.130Z,5.86
2019-01-20T13:12:21.989Z,5.85
2019-01-20T13:13:26.558Z,5.83
2019-01-20T13:14:38.800Z,6.24
2019-01-20T13:15:39.009Z,6.04
2019-01-20T13:16:44.786Z,6.18
2019-01-20T13:17:50.706Z,6.32
2019-01-20T13:18:56.257Z,6.28
2019-01-20T13:20:01.300Z,5.94
2019-01-20T13:21:08.075Z,6.14
2019-01-20T13:22:13.626Z,6.00
2019-01-20T13:23:18.946Z,6.10
2019-01-20T13:24:23.891Z,6.34
2019-01-20T13:25:30.559Z,6.39
2019-01-20T13:26:35.190Z,6.16
2019-01-20T13:27:40.126Z,5.92
2019-01-20T13:28:45.925Z,6.10
2019-01-20T13:29:51.787Z,5.72
2019-01-20T13:30:57.111Z,5.81
2019-01-20T13:32:04.185Z,5.88
2019-01-20T13:33:09.611Z,5.89
2019-01-20T13:34:14.845Z,6.18
2019-01-20T13:35:20.926Z,6.37
2019-01-20T13:36:26.379Z,6.23
2019-01-20T13:37:31.296Z,6.08
2019-01-20T13:38:37.116Z,6.01
2019-01-20T13:39:42.081Z,6.00
2019-01-20T13:41:02.724Z,5.68
2019-01-20T13:42:07.740Z,5.84
2019-01-20T13:43:13.156Z,6.14
2019-01-20T13:44:18.020Z,6.22
2019-01-20T13:45:22.659Z,6.25
2019-01-20T13:46:27.752Z,6.34
2019-01-20T13:47:32.713Z,5.86
2019-01-20T13:48:38.035Z,5.77
2019-01-20T13:49:42.650Z,6.01
2019-01-20T13:50:47.673Z,5.70
2019-01-20T13:51:52.695Z,5.65
2019-01-20T13:52:57.660Z,5.44
2019-01-20T13:54:03.059Z,5.59
2019-01-20T13:55:09.257Z,5.81
2019-01-20T13:56:15.116Z,5.99
2019-01-20T13:57:20.116Z,5.95
2019-01-20T13:58:25.431Z,5.96
2019-01-20T13:59:30.409Z,6.11
2019-01-20T14:00:35.370Z,5.80
2019-01-20T14:01:40.477Z,5.66
2019-01-20T14:02:45.556Z,5.72
2019-01-20T14:03:51.334Z,5.78
2019-01-20T14:04:56.797Z,5.91
2019-01-20T14:06:01.882Z,5.94
2019-01-20T14:07:06.939Z,5.78
2019-01-20T14:08:12.297Z,5.84
2019-01-20T14:09:17.861Z,5.62
2019-01-20T14:10:23.178Z,5.87
2019-01-20T14:11:28.442Z,5.91
2019-01-20T14:12:33.836Z,6.00
2019-01-20T14:13:38.987Z,5.96
2019-01-20T14:14:43.912Z,5.46
2019-01-20T14:15:49.189Z,5.52